地図

経路データ

SID SEASON NUMBER BASIN SUBBASIN NAME ISO_TIME NATURE LAT LON WMO_WIND WMO_PRES WMO_AGENCY TRACK_TYPE DIST2LAND LANDFALL IFLAG USA_AGENCY USA_ATCF_ID USA_LAT USA_LON USA_RECORD USA_STATUS USA_WIND USA_PRES USA_SSHS USA_R34_NE USA_R34_SE USA_R34_SW USA_R34_NW USA_R50_NE USA_R50_SE USA_R50_SW USA_R50_NW USA_R64_NE USA_R64_SE USA_R64_SW USA_R64_NW USA_POCI USA_ROCI USA_RMW USA_EYE TOKYO_LAT TOKYO_LON TOKYO_GRADE TOKYO_WIND TOKYO_PRES TOKYO_R50_DIR TOKYO_R50_LONG TOKYO_R50_SHORT TOKYO_R30_DIR TOKYO_R30_LONG TOKYO_R30_SHORT TOKYO_LAND CMA_LAT CMA_LON CMA_CAT CMA_WIND CMA_PRES HKO_LAT HKO_LON HKO_CAT HKO_WIND HKO_PRES NEWDELHI_LAT NEWDELHI_LON NEWDELHI_GRADE NEWDELHI_WIND NEWDELHI_PRES NEWDELHI_CI NEWDELHI_DP NEWDELHI_POCI REUNION_LAT REUNION_LON REUNION_TYPE REUNION_WIND REUNION_PRES REUNION_TNUM REUNION_CI REUNION_RMW REUNION_R34_NE REUNION_R34_SE REUNION_R34_SW REUNION_R34_NW REUNION_R50_NE REUNION_R50_SE REUNION_R50_SW REUNION_R50_NW REUNION_R64_NE REUNION_R64_SE REUNION_R64_SW REUNION_R64_NW BOM_LAT BOM_LON BOM_TYPE BOM_WIND BOM_PRES BOM_TNUM BOM_CI BOM_RMW BOM_R34_NE BOM_R34_SE BOM_R34_SW BOM_R34_NW BOM_R50_NE BOM_R50_SE BOM_R50_SW BOM_R50_NW BOM_R64_NE BOM_R64_SE BOM_R64_SW BOM_R64_NW BOM_ROCI BOM_POCI BOM_EYE BOM_POS_METHOD BOM_PRES_METHOD NADI_LAT NADI_LON NADI_CAT NADI_WIND NADI_PRES WELLINGTON_LAT WELLINGTON_LON WELLINGTON_WIND WELLINGTON_PRES DS824_LAT DS824_LON DS824_STAGE DS824_WIND DS824_PRES TD9636_LAT TD9636_LON TD9636_STAGE TD9636_WIND TD9636_PRES TD9635_LAT TD9635_LON TD9635_WIND TD9635_PRES TD9635_ROCI NEUMANN_LAT NEUMANN_LON NEUMANN_CLASS NEUMANN_WIND NEUMANN_PRES MLC_LAT MLC_LON MLC_CLASS MLC_WIND MLC_PRES USA_GUST BOM_GUST BOM_GUST_PER REUNION_GUST REUNION_GUST_PER USA_SEAHGT USA_SEARAD_NE USA_SEARAD_SE USA_SEARAD_SW USA_SEARAD_NW STORM_SPEED STORM_DIR
1960192N12304 1960 35 NA NA ABBY 1960-07-09 12:00:00 TS 12.0000 -55.8000 40 hurdat_atl main 568 529 O_____________ hurdat_atl AL021960 12.0000 -55.8000 TS 40 0 13 293
1960192N12304 1960 35 NA NA ABBY 1960-07-09 15:00:00 TS 12.2503 -56.4048 main 532 480 P_____________ AL021960 12.2503 -56.4048 TS 40 0 13 293
1960192N12304 1960 35 NA NA ABBY 1960-07-09 18:00:00 TS 12.5000 -57.0000 40 hurdat_atl main 480 432 O_____________ hurdat_atl AL021960 12.5000 -57.0000 TS 40 0 13 293
1960192N12304 1960 35 NA NA ABBY 1960-07-09 21:00:00 TS 12.7498 -57.5852 main 432 399 P_____________ AL021960 12.7498 -57.5852 TS 42 0 13 293
1960192N12304 1960 35 NA NA ABBY 1960-07-10 00:00:00 TS 13.0000 -58.2000 45 hurdat_atl main 399 361 O_____________ hurdat_atl AL021960 13.0000 -58.2000 TS 45 0 14 292
1960192N12304 1960 35 NA NA ABBY 1960-07-10 03:00:00 TS 13.2575 -58.8925 main 370 348 P_____________ AL021960 13.2575 -58.8925 TS 47 0 15 290
1960192N12304 1960 35 NA CS ABBY 1960-07-10 06:00:00 TS 13.5000 -59.6000 50 hurdat_atl main 348 342 O_____________ hurdat_atl AL021960 13.5000 -59.6000 TS 50 0 14 289
1960192N12304 1960 35 NA CS ABBY 1960-07-10 09:00:00 TS 13.7222 -60.2501 main 344 344 P_____________ AL021960 13.7222 -60.2501 TS 52 0 13 288
1960192N12304 1960 35 NA CS ABBY 1960-07-10 12:00:00 TS 13.9000 -60.9000 55 1003 hurdat_atl main 358 358 O_____________ hurdat_atl AL021960 13.9000 -60.9000 L TS 55 1003 0 14 283
1960192N12304 1960 35 NA CS ABBY 1960-07-10 15:00:00 TS 14.0150 -61.6077 main 369 369 P_____________ AL021960 14.0150 -61.6077 TS 55 1002 0 14 278
1960192N12304 1960 35 NA CS ABBY 1960-07-10 18:00:00 TS 14.1000 -62.3000 55 1002 hurdat_atl main 380 380 O_____________ hurdat_atl AL021960 14.1000 -62.3000 TS 55 1002 0 13 278
1960192N12304 1960 35 NA CS ABBY 1960-07-10 21:00:00 TS 14.1997 -62.9151 main 391 391 P_____________ AL021960 14.1997 -62.9151 TS 55 0 12 280
1960192N12304 1960 35 NA CS ABBY 1960-07-11 00:00:00 TS 14.3000 -63.5000 55 hurdat_atl main 405 405 O_____________ hurdat_atl AL021960 14.3000 -63.5000 TS 55 0 12 280
1960192N12304 1960 35 NA CS ABBY 1960-07-11 03:00:00 TS 14.3999 -64.1075 main 425 408 P_____________ AL021960 14.3999 -64.1075 TS 57 0 12 280
1960192N12304 1960 35 NA CS ABBY 1960-07-11 06:00:00 TS 14.5000 -64.7000 60 hurdat_atl main 408 384 O_____________ hurdat_atl AL021960 14.5000 -64.7000 TS 60 0 11 280
1960192N12304 1960 35 NA CS ABBY 1960-07-11 09:00:00 TS 14.5996 -65.2276 main 384 360 P_____________ AL021960 14.5996 -65.2276 TS 60 0 11 281
1960192N12304 1960 35 NA CS ABBY 1960-07-11 12:00:00 TS 14.7000 -65.8000 60 999 hurdat_atl main 360 346 O_____________ hurdat_atl AL021960 14.7000 -65.8000 TS 60 999 0 13 280
1960192N12304 1960 35 NA CS ABBY 1960-07-11 15:00:00 TS 14.8149 -66.5124 main 348 335 P_____________ AL021960 14.8149 -66.5124 TS 57 1001 0 15 278
1960192N12304 1960 35 NA CS ABBY 1960-07-11 18:00:00 TS 14.9000 -67.3000 55 1004 hurdat_atl main 335 335 O_____________ hurdat_atl AL021960 14.9000 -67.3000 TS 55 1004 0 15 274
1960192N12304 1960 35 NA CS ABBY 1960-07-11 21:00:00 TS 14.9299 -68.1000 main 349 331 P_____________ AL021960 14.9299 -68.1000 TS 52 1004 0 15 270
1960192N12304 1960 35 NA CS ABBY 1960-07-12 00:00:00 TS 14.9000 -68.9000 50 1005 hurdat_atl main 331 304 O_____________ hurdat_atl AL021960 14.9000 -68.9000 TS 50 1005 0 15 265
1960192N12304 1960 35 NA CS ABBY 1960-07-12 03:00:00 TS 14.7997 -69.6577 main 303 283 P_____________ AL021960 14.7997 -69.6577 TS 50 1005 0 15 262
1960192N12304 1960 35 NA CS ABBY 1960-07-12 06:00:00 TS 14.7000 -70.4000 50 1005 hurdat_atl main 283 261 O_____________ hurdat_atl AL021960 14.7000 -70.4000 TS 50 1005 0 15 265
1960192N12304 1960 35 NA CS ABBY 1960-07-12 09:00:00 TS 14.6624 -71.1650 main 259 257 P_____________ AL021960 14.6624 -71.1650 TS 50 1006 0 15 270
1960192N12304 1960 35 NA CS ABBY 1960-07-12 12:00:00 TS 14.7000 -71.9000 50 1007 hurdat_atl main 258 258 O_____________ hurdat_atl AL021960 14.7000 -71.9000 TS 50 1007 0 14 277
1960192N12304 1960 35 NA CS ABBY 1960-07-12 15:00:00 TS 14.8348 -72.5798 main 285 285 P_____________ AL021960 14.8348 -72.5798 TS 50 1006 0 13 283
1960192N12304 1960 35 NA CS ABBY 1960-07-12 18:00:00 TS 15.0000 -73.2000 50 hurdat_atl main 328 324 I_____________ hurdat_atl AL021960 15.0000 -73.2000 TS 50 1005 0 12 284
1960192N12304 1960 35 NA CS ABBY 1960-07-12 21:00:00 TS 15.1223 -73.7650 main 324 313 P_____________ AL021960 15.1223 -73.7650 TS 50 1004 0 11 281
1960192N12304 1960 35 NA CS ABBY 1960-07-13 00:00:00 TS 15.2000 -74.3000 50 1004 hurdat_atl main 316 316 O_____________ hurdat_atl AL021960 15.2000 -74.3000 TS 50 1004 0 10 276
1960192N12304 1960 35 NA CS ABBY 1960-07-13 03:00:00 TS 15.2372 -74.8349 main 327 313 P_____________ AL021960 15.2372 -74.8349 TS 50 1005 0 11 270
1960192N12304 1960 35 NA CS ABBY 1960-07-13 06:00:00 TS 15.2000 -75.4000 50 hurdat_atl main 313 308 I_____________ hurdat_atl AL021960 15.2000 -75.4000 TS 50 1006 0 12 261
1960192N12304 1960 35 NA CS ABBY 1960-07-13 09:00:00 TS 15.0649 -76.0277 main 314 311 P_____________ AL021960 15.0649 -76.0277 TS 47 1007 0 13 257
1960192N12304 1960 35 NA CS ABBY 1960-07-13 12:00:00 TS 14.9000 -76.7000 45 1008 hurdat_atl main 317 315 O_____________ hurdat_atl AL021960 14.9000 -76.7000 TS 45 1008 0 14 258
1960192N12304 1960 35 NA CS ABBY 1960-07-13 15:00:00 TS 14.7774 -77.3925 main 325 325 P_____________ AL021960 14.7774 -77.3925 TS 45 1007 0 14 262
1960192N12304 1960 35 NA CS ABBY 1960-07-13 18:00:00 TS 14.7000 -78.1000 45 hurdat_atl main 349 349 I_____________ hurdat_atl AL021960 14.7000 -78.1000 TS 45 1006 0 14 265
1960192N12304 1960 35 NA CS ABBY 1960-07-13 21:00:00 TS 14.6547 -78.7927 main 376 376 P_____________ AL021960 14.6547 -78.7927 TS 45 1005 0 14 270
1960192N12304 1960 35 NA CS ABBY 1960-07-14 00:00:00 TS 14.7000 -79.5000 45 1004 hurdat_atl main 388 311 O_____________ hurdat_atl AL021960 14.7000 -79.5000 TS 45 1004 0 14 278
1960192N12304 1960 35 NA CS ABBY 1960-07-14 03:00:00 TS 14.8623 -80.2424 main 311 225 P_____________ AL021960 14.8623 -80.2424 TS 47 0 15 285
1960192N12304 1960 35 NA CS ABBY 1960-07-14 06:00:00 TS 15.1000 -81.0000 50 hurdat_atl main 225 154 O_____________ hurdat_atl AL021960 15.1000 -81.0000 TS 50 0 15 289
1960192N12304 1960 35 NA CS ABBY 1960-07-14 09:00:00 TS 15.3573 -81.7574 main 146 93 P_____________ AL021960 15.3573 -81.7574 TS 52 0 15 289
1960192N12304 1960 35 NA CS ABBY 1960-07-14 12:00:00 TS 15.6000 -82.5000 55 hurdat_atl main 93 55 O_____________ hurdat_atl AL021960 15.6000 -82.5000 TS 55 0 15 286
1960192N12304 1960 35 NA CS ABBY 1960-07-14 15:00:00 TS 15.7723 -83.2152 main 59 35 P_____________ AL021960 15.7723 -83.2152 TS 55 0 14 283
1960192N12304 1960 35 NA CS ABBY 1960-07-14 18:00:00 TS 15.9000 -83.9000 55 hurdat_atl main 35 15 O_____________ hurdat_atl AL021960 15.9000 -83.9000 TS 55 0 13 280
1960192N12304 1960 35 NA CS ABBY 1960-07-14 21:00:00 TS 16.0072 -84.5502 main 15 11 P_____________ AL021960 16.0072 -84.5502 TS 57 0 13 279
1960192N12304 1960 35 NA CS ABBY 1960-07-15 00:00:00 TS 16.1000 -85.2000 60 995 hurdat_atl main 22 22 O_____________ hurdat_atl AL021960 16.1000 -85.2000 TS 60 995 0 13 278
1960192N12304 1960 35 NA CS ABBY 1960-07-15 03:00:00 TS 16.1998 -85.8926 main 33 33 P_____________ AL021960 16.1998 -85.8926 TS 65 1 14 278
1960192N12304 1960 35 NA CS ABBY 1960-07-15 06:00:00 TS 16.3000 -86.6000 70 hurdat_atl main 59 55 O_____________ hurdat_atl AL021960 16.3000 -86.6000 L HU 70 1 14 279
1960192N12304 1960 35 NA CS ABBY 1960-07-15 09:00:00 TS 16.4232 -87.3232 main 67 42 P_____________ AL021960 16.4232 -87.3232 HU 70 1 14 278
1960192N12304 1960 35 NA CS ABBY 1960-07-15 12:00:00 TS 16.5000 -88.0000 70 hurdat_atl main 42 0 O_____________ hurdat_atl AL021960 16.5000 -88.0000 HU 70 1 12 274
1960192N12304 1960 35 NA CS ABBY 1960-07-15 14:00:00 TS 16.5000 -88.4000 70 hurdat_atl main 0 0 O_____________ hurdat_atl AL021960 16.5000 -88.4000 L HU 70 1 12 271
1960192N12304 1960 35 NA NA ABBY 1960-07-15 15:00:00 TS 16.5141 -88.6352 main 0 0 P_____________ AL021960 16.5141 -88.6352 HU 63 0 14 276
1960192N12304 1960 35 NA NA ABBY 1960-07-15 18:00:00 TS 16.6000 -89.4000 45 hurdat_atl main 0 0 O_____________ hurdat_atl AL021960 16.6000 -89.4000 TS 45 0 14 277
1960192N12304 1960 35 NA NA ABBY 1960-07-15 21:00:00 TS 16.6881 -90.0416 main 0 0 P_____________ AL021960 16.6881 -90.0416 TS 37 0 12 280
1960192N12304 1960 35 NA NA ABBY 1960-07-16 00:00:00 TS 16.8000 -90.6000 30 hurdat_atl main 0 0 O_____________ hurdat_atl AL021960 16.8000 -90.6000 TD 30 -1 11 284
1960192N12304 1960 35 NA NA ABBY 1960-07-16 03:00:00 TS 16.9347 -91.1076 main 0 0 P_____________ AL021960 16.9347 -91.1076 TD 30 -1 10 287
1960192N12304 1960 35 NA NA ABBY 1960-07-16 06:00:00 TS 17.1000 -91.6000 30 hurdat_atl main 0 0 O_____________ hurdat_atl AL021960 17.1000 -91.6000 TD 30 -1 10 290
1960192N12304 1960 35 NA NA ABBY 1960-07-16 09:00:00 TS 17.2848 -92.1277 main 0 0 P_____________ AL021960 17.2848 -92.1277 TD 30 -1 11 291
1960192N12304 1960 35 NA NA ABBY 1960-07-16 12:00:00 TS 17.5000 -92.7000 30 hurdat_atl main 0 0 O_____________ hurdat_atl AL021960 17.5000 -92.7000 TD 30 -1 12 291
1960192N12304 1960 35 NA NA ABBY 1960-07-16 15:00:00 TS 17.7349 -93.3351 main 0 0 P_____________ AL021960 17.7349 -93.3351 TD 30 -1 13 292
1960192N12304 1960 35 NA NA ABBY 1960-07-16 18:00:00 TS 18.0000 -94.0000 30 hurdat_atl main 0 0 O_____________ hurdat_atl AL021960 18.0000 -94.0000 TD 30 -1 14 293
1960192N12304 1960 35 NA GM ABBY 1960-07-16 21:00:00 TS 18.2773 -94.6503 main 0 0 P_____________ AL021960 18.2773 -94.6503 TD 30 -1 14 296
1960192N12304 1960 35 NA NA ABBY 1960-07-17 00:00:00 TS 18.6000 -95.3000 30 hurdat_atl main 0 0 O_____________ hurdat_atl AL021960 18.6000 -95.3000 TD 30 -1 14 299
1960192N12304 1960 35 NA GM ABBY 1960-07-17 03:00:00 TS 18.9622 -95.9430 main 10 0 P_____________ AL021960 18.9622 -95.9430 TD 30 -1 15 303
1960192N12304 1960 35 NA NA ABBY 1960-07-17 06:00:00 TS 19.4000 -96.6000 30 hurdat_atl main 0 0 O_____________ hurdat_atl AL021960 19.4000 -96.6000 TD 30 -1 16 307
1960192N12304 1960 35 NA NA ABBY 1960-07-17 09:00:00 TS 19.9256 -97.2888 main 0 0 P_____________ AL021960 19.9256 -97.2888 TD 30 -1 17 310
1960192N12304 1960 35 NA NA ABBY 1960-07-17 12:00:00 TS 20.5000 -98.0000 30 hurdat_atl main 0 O_____________ hurdat_atl AL021960 20.5000 -98.0000 TD 30 -1 18 311

IBTrACS Databaseについて

本データベースは、米国NOAAが公開する1842年以降の世界の熱帯低気圧のベストトラックデータアーカイブInternational Best Track Archive for Climate Stewardship (IBTrACS)を、ウェブで閲覧しやすい形式に変換したものです。

最終更新日:2021-12-03